Time;durP1;ratioP1;P1;durP2;ratioP2;P2;SDS_P1;SDS_P2;PMS_P1;PMS_P2;Temp;Humidity;BMP_temperature;BMP_pressure;BME280_temperature;BME280_humidity;BME280_pressure;Samples;Min_cycle;Max_cycle;Signal;HPM_P1;HPM_P2
2022/10/28 00:00:55;;;;;;;12.32;3.45;;;;;;;14.87;100.00;100023.31;5038956;28;20128;-75
2022/10/28 00:03:21;;;;;;;16.92;3.90;;;;;;;14.90;100.00;100044.72;5057974;28;20043;-74
2022/10/28 00:05:46;;;;;;;9.07;4.43;;;;;;;14.89;100.00;100032.88;5057170;28;20486;-76
2022/10/28 00:08:12;;;;;;;16.02;3.75;;;;;;;14.87;100.00;100032.38;5058526;28;20035;-75
2022/10/28 00:10:37;;;;;;;7.78;2.95;;;;;;;14.87;100.00;100034.31;5024731;28;20025;-73
2022/10/28 00:13:03;;;;;;;16.73;4.70;;;;;;;14.87;100.00;100039.81;5054335;28;20048;-74
2022/10/28 00:15:28;;;;;;;15.73;4.70;;;;;;;14.87;100.00;100028.81;5057816;28;20116;-74
2022/10/28 00:17:53;;;;;;;13.48;4.18;;;;;;;14.84;100.00;100019.22;5040064;28;20059;-75
2022/10/28 00:20:19;;;;;;;16.00;3.95;;;;;;;14.79;100.00;100011.03;5053790;28;20017;-74
2022/10/28 00:22:44;;;;;;;12.55;4.05;;;;;;;14.79;100.00;100025.66;5049638;28;20107;-74
2022/10/28 00:25:10;;;;;;;17.23;4.50;;;;;;;14.79;100.00;100017.38;5053526;28;20073;-74
2022/10/28 00:27:36;;;;;;;9.93;3.28;;;;;;;14.77;100.00;100013.31;5037055;28;20057;-74
2022/10/28 00:30:02;;;;;;;12.48;3.17;;;;;;;14.76;100.00;100023.50;5047488;28;20034;-74
2022/10/28 00:32:29;;;;;;;13.75;3.90;;;;;;;14.74;100.00;100014.72;5057461;28;20026;-75
2022/10/28 00:34:54;;;;;;;18.85;4.68;;;;;;;14.73;100.00;100017.78;5040220;28;20049;-76
2022/10/28 00:37:20;;;;;;;9.88;3.95;;;;;;;14.73;100.00;100024.09;5055877;28;20037;-73
2022/10/28 00:39:45;;;;;;;12.52;3.78;;;;;;;14.68;100.00;100015.13;5056790;28;20021;-74
2022/10/28 00:42:11;;;;;;;8.52;3.17;;;;;;;14.66;100.00;100019.00;5038054;28;20490;-75
2022/10/28 00:44:55;;;;;;;15.43;3.50;;;;;;;14.65;100.00;100013.78;5041317;28;20020;-74
2022/10/28 00:47:54;;;;;;;11.52;3.58;;;;;;;14.63;100.00;99991.25;5051033;28;20027;-74
2022/10/28 00:50:46;;;;;;;14.98;3.45;;;;;;;14.61;100.00;99985.22;5058872;28;20033;-74
2022/10/28 00:53:16;;;;;;;6.85;2.35;;;;;;;14.57;100.00;99981.44;5046135;28;20011;-73
2022/10/28 00:55:44;;;;;;;14.27;2.60;;;;;;;14.56;100.00;99985.31;5057576;28;20439;-74
2022/10/28 00:58:11;;;;;;;13.27;3.00;;;;;;;14.58;100.00;99977.56;5058632;28;20033;-74
2022/10/28 01:00:36;;;;;;;10.25;3.25;;;;;;;14.57;100.00;99971.25;5057641;28;20024;-74
2022/10/28 01:03:02;;;;;;;10.52;3.38;;;;;;;14.55;100.00;99962.47;5043485;28;20033;-73
2022/10/28 01:05:31;;;;;;;9.57;2.95;;;;;;;14.54;100.00;99973.78;5066311;28;20034;-74
2022/10/28 01:07:59;;;;;;;6.88;2.67;;;;;;;14.54;100.00;99965.53;5055304;28;20025;-75
2022/10/28 01:10:59;;;;;;;8.13;2.47;;;;;;;14.53;100.00;99974.91;5047516;28;20386;-75
2022/10/28 01:13:55;;;;;;;7.78;2.22;;;;;;;14.46;100.00;99967.06;5069538;28;20025;-75
2022/10/28 01:16:45;;;;;;;9.50;2.70;;;;;;;14.46;100.00;99959.63;5055537;28;20021;-74
2022/10/28 01:19:42;;;;;;;10.75;2.80;;;;;;;14.44;100.00;99969.28;5053824;28;20033;-75
2022/10/28 01:22:39;;;;;;;7.82;2.40;;;;;;;14.42;100.00;99966.84;5040944;28;20029;-74
2022/10/28 01:25:42;;;;;;;5.95;2.58;;;;;;;14.38;100.00;99954.00;5066689;28;20112;-73
2022/10/28 01:28:25;;;;;;;12.68;3.22;;;;;;;14.32;100.00;99931.28;5041859;28;20034;-73
2022/10/28 01:31:05;;;;;;;9.48;3.30;;;;;;;14.33;100.00;99932.91;5059461;28;20021;-74
2022/10/28 01:34:12;;;;;;;9.45;2.65;;;;;;;14.30;100.00;99925.28;5061851;28;20032;-76
2022/10/28 01:36:59;;;;;;;9.48;2.60;;;;;;;14.28;100.00;99913.75;5024758;28;20346;-74
2022/10/28 01:39:36;;;;;;;11.25;2.88;;;;;;;14.30;100.00;99912.31;5062354;28;20084;-74
2022/10/28 01:42:19;;;;;;;7.45;2.75;;;;;;;14.35;100.00;99911.41;5064084;28;20032;-74
2022/10/28 01:45:02;;;;;;;9.07;2.97;;;;;;;14.31;100.00;99902.97;5055666;28;20033;-75
2022/10/28 01:47:36;;;;;;;10.95;3.15;;;;;;;14.39;100.00;99895.13;5063113;28;20029;-74
2022/10/28 01:50:14;;;;;;;9.87;2.60;;;;;;;14.40;100.00;99889.31;5057386;28;20017;-75
2022/10/28 01:52:42;;;;;;;8.15;2.40;;;;;;;14.40;100.00;99888.50;5060718;28;20044;-75
2022/10/28 01:55:39;;;;;;;9.75;3.15;;;;;;;14.42;100.00;99881.56;5058498;28;20021;-75
2022/10/28 01:58:08;;;;;;;19.38;2.60;;;;;;;14.41;100.00;99888.22;5064168;28;20033;-75
2022/10/28 02:00:35;;;;;;;15.70;3.38;;;;;;;14.43;100.00;99874.16;5063559;28;20047;-73
2022/10/28 02:03:01;;;;;;;8.75;2.47;;;;;;;14.46;100.00;99882.59;5064886;28;20029;-74
2022/10/28 02:05:36;;;;;;;9.23;2.38;;;;;;;14.51;100.00;99892.69;5058110;28;20028;-74
2022/10/28 02:08:09;;;;;;;17.77;3.03;;;;;;;14.53;100.00;99892.38;5064742;28;20048;-73
2022/10/28 02:10:41;;;;;;;15.95;3.13;;;;;;;14.54;100.00;99885.75;5062049;28;20044;-73
2022/10/28 02:13:13;;;;;;;8.20;2.88;;;;;;;14.54;100.00;99869.25;5057032;28;20029;-73
2022/10/28 02:16:05;;;;;;;14.38;2.97;;;;;;;14.55;100.00;99879.13;5048699;28;20051;-74
2022/10/28 02:18:58;;;;;;;10.55;2.88;;;;;;;14.58;100.00;99879.31;5068830;28;20032;-75
2022/10/28 02:21:59;;;;;;;9.00;2.63;;;;;;;14.55;100.00;99873.63;5058118;28;20025;-74
2022/10/28 02:25:00;;;;;;;11.45;2.60;;;;;;;14.62;100.00;99874.06;5064490;28;20025;-73
2022/10/28 02:27:31;;;;;;;12.27;3.15;;;;;;;14.63;100.00;99860.00;5040856;28;20033;-74
2022/10/28 02:32:48;;;;;;;10.57;2.30;;;;;;;14.68;100.00;99861.03;4351986;26;20401;-73
2022/10/28 02:35:19;;;;;;;4.95;2.42;;;;;;;14.74;100.00;99860.59;5075018;28;20033;-72
2022/10/28 02:37:47;;;;;;;8.88;2.35;;;;;;;14.70;100.00;99848.56;5060485;28;20092;-72
2022/10/28 02:40:18;;;;;;;4.72;3.17;;;;;;;14.72;100.00;99846.34;5080020;28;20055;-72
2022/10/28 02:42:51;;;;;;;5.53;2.47;;;;;;;14.66;100.00;99844.81;5084732;28;20028;-72
2022/10/28 02:45:21;;;;;;;7.50;2.33;;;;;;;14.67;100.00;99840.94;5068590;28;20020;-73
2022/10/28 02:47:53;;;;;;;11.82;2.00;;;;;;;14.64;100.00;99827.78;5068496;28;20048;-73
2022/10/28 02:50:23;;;;;;;10.77;2.97;;;;;;;14.67;100.00;99827.19;5060187;28;20065;-71
2022/10/28 02:52:52;;;;;;;5.97;2.17;;;;;;;14.65;100.00;99823.94;5060904;28;20055;-73
2022/10/28 02:55:21;;;;;;;7.63;2.13;;;;;;;14.69;100.00;99819.44;5059725;28;20050;-73
2022/10/28 02:57:48;;;;;;;7.57;2.40;;;;;;;14.77;100.00;99804.94;5059705;28;20025;-74
2022/10/28 03:00:21;;;;;;;6.20;2.08;;;;;;;14.80;100.00;99809.81;5023017;28;21055;-72
2022/10/28 03:02:46;;;;;;;13.15;2.85;;;;;;;14.86;100.00;99801.47;5071476;28;20021;-72
2022/10/28 03:05:13;;;;;;;7.70;1.98;;;;;;;14.89;100.00;99803.59;5029578;28;20371;-72
2022/10/28 03:07:38;;;;;;;7.45;2.60;;;;;;;14.89;100.00;99789.81;5068874;28;20024;-72
2022/10/28 03:10:04;;;;;;;9.13;2.55;;;;;;;14.84;100.00;99783.31;5053440;28;20127;-71
2022/10/28 03:12:30;;;;;;;6.70;2.05;;;;;;;14.89;100.00;99787.06;5046653;28;20048;-71
2022/10/28 03:14:55;;;;;;;10.70;2.80;;;;;;;14.90;100.00;99791.47;5061080;28;20409;-73
2022/10/28 03:17:21;;;;;;;9.90;3.40;;;;;;;14.90;100.00;99780.44;5025350;28;20032;-72
2022/10/28 03:19:46;;;;;;;13.25;2.72;;;;;;;14.86;100.00;99777.50;5060118;28;20024;-72
2022/10/28 03:22:12;;;;;;;12.63;2.63;;;;;;;14.82;100.00;99771.81;5038300;28;20039;-72
2022/10/28 03:24:37;;;;;;;10.10;2.85;;;;;;;14.81;100.00;99766.63;5044300;28;20024;-70
2022/10/28 03:27:02;;;;;;;12.93;2.88;;;;;;;14.78;100.00;99762.53;5059610;28;20078;-71
2022/10/28 03:29:28;;;;;;;14.57;3.28;;;;;;;14.77;100.00;99771.09;5051592;28;20055;-71
2022/10/28 03:31:53;;;;;;;11.15;2.38;;;;;;;14.82;100.00;99766.31;5052856;28;20451;-73
2022/10/28 03:34:19;;;;;;;12.85;2.80;;;;;;;14.82;100.00;99769.06;5039601;28;20041;-71
2022/10/28 03:36:44;;;;;;;12.48;3.50;;;;;;;14.90;100.00;99773.00;5018992;28;20026;-73
2022/10/28 03:39:09;;;;;;;11.18;2.67;;;;;;;14.97;100.00;99754.09;5021733;28;20029;-73
2022/10/28 03:41:35;;;;;;;10.75;2.63;;;;;;;15.08;100.00;99754.66;5029805;28;20032;-72
2022/10/28 03:44:00;;;;;;;18.90;3.00;;;;;;;15.14;100.00;99750.69;5038249;28;20332;-72
2022/10/28 03:46:26;;;;;;;9.70;2.40;;;;;;;15.19;100.00;99756.06;5036305;28;20060;-74
2022/10/28 03:48:51;;;;;;;9.77;2.22;;;;;;;15.25;100.00;99747.69;5007947;28;20028;-74
2022/10/28 03:51:17;;;;;;;7.88;2.78;;;;;;;15.32;100.00;99748.03;5027111;28;20045;-74
2022/10/28 03:53:42;;;;;;;9.20;2.90;;;;;;;15.34;100.00;99748.53;5018053;28;20033;-73
2022/10/28 03:56:08;;;;;;;7.88;2.95;;;;;;;15.37;100.00;99745.16;5032804;28;20296;-73
2022/10/28 03:58:33;;;;;;;10.35;2.63;;;;;;;15.38;100.00;99746.78;5030006;28;20038;-73
2022/10/28 04:00:59;;;;;;;16.95;3.47;;;;;;;15.34;100.00;99741.06;5032859;28;20029;-74
2022/10/28 04:03:27;;;;;;;11.88;2.78;;;;;;;15.28;100.00;99736.03;5046702;23;20049;-72
2022/10/28 04:05:57;;;;;;;11.00;3.08;;;;;;;15.43;100.00;99757.66;5022663;28;20025;-75
2022/10/28 04:08:23;;;;;;;11.82;3.10;;;;;;;15.43;100.00;99762.38;5022146;28;20038;-75
2022/10/28 04:10:48;;;;;;;10.43;2.47;;;;;;;15.48;100.00;99767.75;5018153;28;20033;-75
2022/10/28 04:13:14;;;;;;;12.85;3.08;;;;;;;15.50;100.00;99762.72;5037354;28;20033;-75
2022/10/28 04:15:40;;;;;;;10.80;2.92;;;;;;;15.51;100.00;99778.16;5036604;28;20026;-73
2022/10/28 04:18:06;;;;;;;12.45;3.05;;;;;;;15.44;100.00;99778.56;5020967;28;20514;-76
2022/10/28 04:20:32;;;;;;;6.53;3.08;;;;;;;15.54;100.00;99799.56;5010649;28;20030;-75
2022/10/28 04:22:58;;;;;;;8.57;2.30;;;;;;;15.49;100.00;99797.75;5028634;28;20040;-74
2022/10/28 04:25:25;;;;;;;10.82;2.90;;;;;;;15.61;100.00;99799.09;5026074;28;20014;-74
2022/10/28 04:27:51;;;;;;;7.85;2.55;;;;;;;15.64;100.00;99784.72;5017776;28;20021;-73
2022/10/28 04:30:16;;;;;;;11.45;2.90;;;;;;;15.67;100.00;99756.50;5013716;28;20133;-73
2022/10/28 04:32:43;;;;;;;7.10;2.88;;;;;;;15.75;100.00;99744.69;4986200;28;20018;-73
2022/10/28 04:35:10;;;;;;;7.10;2.58;;;;;;;15.78;100.00;99768.06;5015019;28;20021;-74
2022/10/28 04:37:36;;;;;;;17.15;3.00;;;;;;;15.80;99.82;99785.97;5022225;28;20109;-74
2022/10/28 04:40:03;;;;;;;16.77;4.43;;;;;;;15.82;100.00;99789.19;5017681;28;20033;-74
2022/10/28 04:42:28;;;;;;;10.80;3.22;;;;;;;15.84;100.00;99780.59;5019731;28;20029;-74
2022/10/28 04:44:53;;;;;;;8.00;2.70;;;;;;;15.84;99.62;99792.47;5034058;28;20064;-73
2022/10/28 04:47:19;;;;;;;8.55;3.00;;;;;;;15.87;99.74;99786.31;5019791;28;20037;-73
2022/10/28 04:49:45;;;;;;;12.13;3.53;;;;;;;15.88;99.21;99796.19;5002802;28;20539;-74
2022/10/28 04:52:11;;;;;;;10.38;3.33;;;;;;;15.90;99.45;99801.38;5014196;28;20079;-75
2022/10/28 04:54:36;;;;;;;13.30;3.15;;;;;;;15.90;98.99;99806.09;5027544;28;20845;-74
2022/10/28 04:57:02;;;;;;;17.45;3.38;;;;;;;15.90;98.64;99823.44;5018861;28;20037;-73
2022/10/28 04:59:27;;;;;;;8.60;2.42;;;;;;;15.92;98.61;99836.94;5019782;28;20431;-74
2022/10/28 05:01:53;;;;;;;12.10;2.85;;;;;;;15.89;98.44;99832.88;5018570;28;20534;-74
2022/10/28 05:04:18;;;;;;;7.63;3.28;;;;;;;15.91;98.74;99835.31;5017167;28;20038;-74
2022/10/28 05:06:43;;;;;;;15.85;3.75;;;;;;;15.93;98.33;99833.88;5015972;28;20040;-74
2022/10/28 05:09:09;;;;;;;20.35;2.97;;;;;;;15.95;97.88;99852.84;5005923;28;20018;-73
2022/10/28 05:11:34;;;;;;;16.85;3.83;;;;;;;15.79;99.99;99833.94;5024693;28;20037;-74
2022/10/28 05:14:00;;;;;;;15.02;3.78;;;;;;;15.53;100.00;99803.44;5016842;28;20069;-72
2022/10/28 05:16:25;;;;;;;19.23;4.53;;;;;;;15.39;100.00;99809.03;5018887;28;20070;-73
2022/10/28 05:18:54;;;;;;;18.15;3.55;;;;;;;15.34;100.00;99795.38;5021079;28;20026;-74
2022/10/28 05:21:20;;;;;;;23.77;3.60;;;;;;;15.24;100.00;99792.88;5021482;28;20040;-75
2022/10/28 05:23:46;;;;;;;15.00;3.58;;;;;;;15.09;100.00;99772.81;5028885;28;20034;-73
2022/10/28 05:26:15;;;;;;;11.98;3.20;;;;;;;15.15;100.00;99774.31;5020582;28;20072;-77
2022/10/28 05:28:40;;;;;;;16.13;3.13;;;;;;;15.12;100.00;99761.19;5033788;28;20057;-75
2022/10/28 05:31:06;;;;;;;19.48;3.03;;;;;;;15.07;100.00;99757.72;5024027;28;20034;-75
2022/10/28 05:33:32;;;;;;;16.85;3.28;;;;;;;15.00;100.00;99758.19;5023593;28;20080;-75
2022/10/28 05:35:58;;;;;;;22.55;3.40;;;;;;;15.06;100.00;99778.16;5008907;28;20041;-74
2022/10/28 05:38:24;;;;;;;19.15;3.70;;;;;;;15.06;100.00;99767.94;5038608;28;20104;-75
2022/10/28 05:40:49;;;;;;;18.52;3.50;;;;;;;15.04;100.00;99750.09;5015955;28;20022;-76
2022/10/28 05:43:15;;;;;;;15.02;3.00;;;;;;;15.10;100.00;99757.09;5003341;28;20026;-75
2022/10/28 05:45:51;;;;;;;10.82;2.95;;;;;;;15.02;100.00;99761.44;5026691;28;20014;-75
2022/10/28 05:48:16;;;;;;;15.77;3.63;;;;;;;15.08;100.00;99776.69;5022796;28;20541;-75
2022/10/28 05:50:42;;;;;;;20.38;4.70;;;;;;;15.00;100.00;99767.25;5020520;28;20097;-72
2022/10/28 05:53:10;;;;;;;16.95;3.28;;;;;;;15.02;100.00;99780.69;5034147;28;20117;-74
2022/10/28 05:55:35;;;;;;;17.90;3.45;;;;;;;15.05;100.00;99766.31;5025492;28;20034;-74
2022/10/28 05:58:01;;;;;;;12.27;2.88;;;;;;;15.08;100.00;99776.69;4991512;28;20034;-73
2022/10/28 06:00:28;;;;;;;15.68;3.85;;;;;;;15.02;100.00;99777.94;5037133;28;20046;-74
2022/10/28 06:03:02;;;;;;;11.50;3.50;;;;;;;15.07;100.00;99780.59;5021148;28;20101;-74
2022/10/28 06:05:27;;;;;;;14.70;2.70;;;;;;;15.10;100.00;99779.97;5029225;28;20030;-74
2022/10/28 06:07:53;;;;;;;10.88;3.08;;;;;;;15.09;100.00;99781.09;5044859;28;20056;-74
2022/10/28 06:10:18;;;;;;;17.42;3.10;;;;;;;15.07;100.00;99780.59;5011462;28;20168;-75
2022/10/28 06:12:44;;;;;;;16.35;4.07;;;;;;;15.15;100.00;99793.59;5021200;28;20030;-76
2022/10/28 06:15:20;;;;;;;;;;;;;;;;;;;;;
2022/10/28 06:17:51;;;;;;;26.17;3.70;;;;;;;15.18;100.00;99792.97;5040353;28;20081;-76
2022/10/28 06:20:17;;;;;;;14.80;3.33;;;;;;;15.21;100.00;99807.25;5044972;28;20049;-77
2022/10/28 06:22:48;;;;;;;18.33;2.80;;;;;;;15.22;100.00;99808.91;5042339;28;20081;-76
2022/10/28 06:25:14;;;;;;;12.55;3.00;;;;;;;15.18;100.00;99803.97;5027116;28;20037;-76
2022/10/28 06:27:39;;;;;;;13.73;2.50;;;;;;;15.15;100.00;99821.13;5028994;28;20026;-75
2022/10/28 06:30:05;;;;;;;24.55;3.78;;;;;;;15.22;100.00;99828.19;5038146;28;20111;-76
2022/10/28 06:32:31;;;;;;;16.92;3.47;;;;;;;15.19;100.00;99844.19;5027641;28;20116;-76
2022/10/28 06:34:56;;;;;;;17.02;2.67;;;;;;;15.16;100.00;99838.50;5025400;28;20056;-76
2022/10/28 06:37:21;;;;;;;20.38;3.25;;;;;;;15.13;100.00;99853.69;5040712;28;20050;-75
2022/10/28 06:39:51;;;;;;;10.57;2.83;;;;;;;15.05;100.00;99848.91;5032980;28;20048;-75
2022/10/28 06:42:17;;;;;;;14.57;2.42;;;;;;;15.02;100.00;99866.06;5011106;28;20074;-75
2022/10/28 06:44:43;;;;;;;14.48;2.90;;;;;;;14.97;100.00;99863.44;5033404;28;20045;-76
2022/10/28 06:47:08;;;;;;;15.68;3.15;;;;;;;14.87;100.00;99858.94;5039339;28;20027;-75
2022/10/28 06:49:37;;;;;;;11.23;2.97;;;;;;;14.85;100.00;99872.22;5026346;28;20040;-75
2022/10/28 06:52:03;;;;;;;17.27;2.55;;;;;;;14.81;100.00;99863.75;5010252;28;20025;-76
2022/10/28 06:54:28;;;;;;;17.50;2.90;;;;;;;14.79;100.00;99868.75;5038368;28;20075;-76
2022/10/28 06:56:53;;;;;;;16.25;1.88;;;;;;;14.74;100.00;99882.63;5029873;28;20126;-76
2022/10/28 06:59:19;;;;;;;11.07;2.30;;;;;;;14.79;100.00;99879.78;5013481;28;20447;-77
2022/10/28 07:01:44;;;;;;;10.80;2.10;;;;;;;14.82;100.00;99873.66;5024981;28;20029;-76
2022/10/28 07:04:11;;;;;;;12.45;2.22;;;;;;;14.81;100.00;99888.53;5041701;28;20076;-75
2022/10/28 07:06:37;;;;;;;10.32;2.08;;;;;;;14.84;100.00;99917.38;5043713;28;20032;-75
2022/10/28 07:09:03;;;;;;;9.88;1.65;;;;;;;14.75;100.00;99917.28;5041177;28;20037;-75
2022/10/28 07:11:28;;;;;;;9.70;1.50;;;;;;;14.48;100.00;99907.88;5043844;28;20033;-75
2022/10/28 07:13:54;;;;;;;34.22;6.70;;;;;;;14.30;100.00;99922.53;5027240;28;20109;-77
2022/10/28 07:16:19;;;;;;;4.55;0.93;;;;;;;14.24;100.00;99956.75;5029909;28;20094;-75
2022/10/28 07:18:45;;;;;;;9.40;1.60;;;;;;;14.17;100.00;99945.31;5034437;28;20034;-75
2022/10/28 07:21:20;;;;;;;;;;;;;;;;;;;;;
2022/10/28 07:23:46;;;;;;;17.45;1.67;;;;;;;14.17;100.00;99964.56;5041455;28;20567;-76
2022/10/28 07:26:11;;;;;;;8.27;1.48;;;;;;;14.24;100.00;99967.75;5037455;28;20025;-77
2022/10/28 07:28:37;;;;;;;10.35;1.75;;;;;;;14.30;100.00;99967.31;5037104;28;20064;-77
2022/10/28 07:31:03;;;;;;;23.35;2.42;;;;;;;14.34;100.00;99970.31;5025158;28;20068;-76
2022/10/28 07:33:29;;;;;;;15.98;2.15;;;;;;;14.39;100.00;99974.91;5041834;28;20017;-73
2022/10/28 07:35:54;;;;;;;6.78;1.55;;;;;;;14.34;100.00;99978.56;5016155;28;20025;-73
2022/10/28 07:38:21;;;;;;;13.10;1.77;;;;;;;14.32;100.00;99980.78;5035045;28;20095;-72
2022/10/28 07:40:46;;;;;;;7.93;1.52;;;;;;;14.29;99.93;99987.72;5032146;28;20037;-73
2022/10/28 07:43:12;;;;;;;11.48;1.83;;;;;;;14.29;100.00;100006.13;5020385;28;20063;-74
2022/10/28 07:45:38;;;;;;;10.32;1.88;;;;;;;14.24;98.31;100007.03;5022348;28;20018;-72
2022/10/28 07:48:04;;;;;;;14.70;1.65;;;;;;;14.25;97.48;100003.19;5024404;28;20383;-74
2022/10/28 07:50:30;;;;;;;17.67;2.72;;;;;;;14.28;96.97;100015.50;5021504;28;20140;-74
2022/10/28 07:52:58;;;;;;;12.73;1.80;;;;;;;14.31;97.43;100017.66;5018254;28;20737;-73
2022/10/28 07:55:25;;;;;;;12.65;2.17;;;;;;;14.37;96.66;100032.13;5030150;28;20072;-74
2022/10/28 07:57:50;;;;;;;17.67;1.83;;;;;;;14.49;96.59;100046.25;5034849;28;20037;-74
2022/10/28 08:00:16;;;;;;;11.45;1.77;;;;;;;14.53;95.95;100049.19;5041401;28;20116;-74
2022/10/28 08:02:42;;;;;;;15.07;2.00;;;;;;;14.60;95.48;100052.38;5039117;28;20022;-75
2022/10/28 08:05:08;;;;;;;15.65;2.20;;;;;;;14.66;95.42;100067.72;5037986;28;20044;-75
2022/10/28 08:07:33;;;;;;;15.63;1.80;;;;;;;14.69;95.29;100069.88;5014822;28;20372;-73
2022/10/28 08:09:58;;;;;;;12.30;2.00;;;;;;;14.68;95.42;100068.22;5012603;28;20120;-72
2022/10/28 08:12:24;;;;;;;10.63;1.67;;;;;;;14.69;95.20;100067.13;4997441;28;20061;-74
2022/10/28 08:14:55;;;;;;;8.70;1.83;;;;;;;14.71;95.45;100081.38;5034074;28;20060;-72
2022/10/28 08:17:24;;;;;;;12.98;1.90;;;;;;;14.77;94.33;100082.91;5004438;28;20037;-74
2022/10/28 08:19:49;;;;;;;14.00;2.05;;;;;;;14.76;92.44;100074.97;5020144;28;20034;-74
2022/10/28 08:22:26;;;;;;;15.98;2.25;;;;;;;14.82;92.29;100088.34;5018091;28;20112;-74
2022/10/28 08:25:11;;;;;;;;;;;;;;;;;;;;;
2022/10/28 08:27:41;;;;;;;6.60;1.05;;;;;;;14.95;88.62;100080.41;5036479;28;20097;-75
2022/10/28 08:30:08;;;;;;;10.77;1.55;;;;;;;15.01;88.50;100081.97;5023467;28;20117;-72
2022/10/28 08:32:34;;;;;;;13.60;1.77;;;;;;;15.13;87.39;100093.28;5026814;28;20037;-73
2022/10/28 08:34:59;;;;;;;11.57;1.98;;;;;;;15.27;87.42;100095.22;5013760;28;20022;-74
2022/10/28 08:37:25;;;;;;;12.77;1.88;;;;;;;15.41;86.88;100109.00;5032443;28;20038;-73
2022/10/28 08:39:50;;;;;;;11.82;1.45;;;;;;;15.61;86.29;100096.72;5016071;28;20033;-74
2022/10/28 08:42:31;;;;;;;12.52;1.83;;;;;;;15.84;84.38;100112.28;5005208;28;20854;-73
2022/10/28 08:45:13;;;;;;;8.48;1.60;;;;;;;15.94;83.84;100119.47;5038572;28;20045;-73
2022/10/28 08:47:48;;;;;;;12.35;1.60;;;;;;;16.02;83.34;100117.94;5018211;28;20033;-72
2022/10/28 08:50:17;;;;;;;8.27;1.17;;;;;;;15.95;83.16;100125.84;5017309;28;20033;-73
2022/10/28 08:52:48;;;;;;;9.43;1.17;;;;;;;15.88;83.50;100146.34;5020846;28;20029;-72
2022/10/28 08:55:16;;;;;;;15.20;1.63;;;;;;;15.82;84.09;100133.81;5034417;28;20030;-71
2022/10/28 08:57:53;;;;;;;11.98;1.30;;;;;;;15.73;84.08;100130.13;5013527;28;20033;-74
2022/10/28 09:00:25;;;;;;;10.35;1.42;;;;;;;15.73;84.45;100143.91;5037554;28;20030;-71
2022/10/28 09:03:11;;;;;;;12.05;2.05;;;;;;;15.95;85.36;100136.88;5034313;28;20364;-73
2022/10/28 09:06:06;;;;;;;8.30;1.23;;;;;;;16.71;83.00;100150.00;5027802;28;20018;-72
2022/10/28 09:08:42;;;;;;;6.88;1.42;;;;;;;17.15;78.56;100130.97;5025652;28;20112;-74
2022/10/28 09:11:14;;;;;;;17.25;2.10;;;;;;;17.31;77.65;100145.19;5033640;28;20427;-73
2022/10/28 09:14:05;;;;;;;11.95;1.38;;;;;;;17.58;76.75;100152.41;5021429;28;20603;-73
2022/10/28 09:16:46;;;;;;;5.78;0.95;;;;;;;18.28;75.65;100160.91;5037819;28;20048;-72
2022/10/28 09:19:45;;;;;;;8.32;1.63;;;;;;;18.93;71.89;100175.72;5021010;28;20079;-73
2022/10/28 09:22:21;;;;;;;10.07;1.67;;;;;;;20.13;67.45;100170.38;5042989;28;20017;-72
2022/10/28 09:24:51;;;;;;;12.00;2.28;;;;;;;21.14;62.77;100180.47;5022858;28;20029;-73
2022/10/28 09:27:38;;;;;;;7.85;1.67;;;;;;;21.81;60.44;100185.13;5037412;28;20551;-73
2022/10/28 09:30:46;;;;;;;10.75;1.85;;;;;;;22.84;58.31;100187.47;5038541;28;20155;-72
2022/10/28 09:33:20;;;;;;;10.15;1.35;;;;;;;25.35;51.78;100201.28;5013554;28;20034;-72
2022/10/28 09:35:47;;;;;;;8.52;1.73;;;;;;;26.07;47.95;100208.91;5035346;28;20049;-72
2022/10/28 09:38:31;;;;;;;8.45;1.27;;;;;;;24.92;49.83;100209.66;5023138;28;20021;-73
2022/10/28 09:41:15;;;;;;;;;;;;;;;25.24;48.81;100215.84;5042916;28;20103;-72
2022/10/28 09:43:57;;;;;;;10.05;1.80;;;;;;;23.38;51.80;100218.84;5040868;28;20429;-73
2022/10/28 09:46:26;;;;;;;6.05;1.25;;;;;;;21.50;57.43;100217.88;5038162;28;20128;-72
2022/10/28 09:48:57;;;;;;;11.85;1.90;;;;;;;20.85;60.74;100212.00;5024560;28;20081;-74
2022/10/28 09:51:46;;;;;;;7.07;1.50;;;;;;;20.54;62.44;100224.31;5039176;28;20056;-73
2022/10/28 09:54:12;;;;;;;8.38;1.55;;;;;;;20.07;63.39;100228.03;5018834;28;20029;-73
2022/10/28 09:56:39;;;;;;;11.80;1.83;;;;;;;19.61;65.20;100221.38;5040461;28;20088;-75
2022/10/28 09:59:05;;;;;;;5.72;2.00;;;;;;;19.46;65.86;100225.50;5041042;28;20037;-73
2022/10/28 10:01:36;;;;;;;18.13;2.58;;;;;;;21.08;62.84;100224.38;5021948;28;20053;-72
2022/10/28 10:04:16;;;;;;;8.05;2.13;;;;;;;24.04;54.01;100236.06;5034632;28;20037;-72
2022/10/28 10:06:44;;;;;;;10.88;2.22;;;;;;;25.84;49.10;100234.13;5039076;28;20091;-72
2022/10/28 10:09:37;;;;;;;9.93;2.03;;;;;;;27.55;44.24;100255.66;5023695;28;20022;-71
2022/10/28 10:12:11;;;;;;;11.50;2.00;;;;;;;29.32;40.73;100254.81;5033812;28;20037;-72
2022/10/28 10:14:45;;;;;;;12.05;1.55;;;;;;;29.72;37.96;100258.47;5001282;28;20025;-72
2022/10/28 10:17:15;;;;;;;4.68;1.20;;;;;;;30.11;36.99;100256.91;5015119;28;20037;-73
2022/10/28 10:20:04;;;;;;;8.77;1.58;;;;;;;27.62;40.20;100261.34;5030566;28;20418;-72
2022/10/28 10:22:35;;;;;;;5.65;0.88;;;;;;;24.75;44.99;100264.03;5036983;28;20014;-72
2022/10/28 10:25:03;;;;;;;4.30;0.82;;;;;;;21.78;51.28;100254.22;5034240;28;20052;-73
2022/10/28 10:27:30;;;;;;;2.22;0.45;;;;;;;20.01;55.32;100274.59;5031928;28;20040;-77
2022/10/28 10:29:59;;;;;;;2.65;0.50;;;;;;;18.90;57.38;100278.91;5020207;28;20112;-72
2022/10/28 10:32:29;;;;;;;2.10;0.50;;;;;;;18.70;59.46;100274.78;5037798;28;20057;-72
2022/10/28 10:35:05;;;;;;;1.50;0.50;;;;;;;19.87;55.75;100279.56;5017212;28;20026;-74
2022/10/28 10:37:34;;;;;;;2.78;0.82;;;;;;;21.05;53.74;100293.72;5020219;28;20034;-72
2022/10/28 10:40:18;;;;;;;2.08;0.40;;;;;;;25.04;46.04;100281.41;5028133;28;20522;-72
2022/10/28 10:42:45;;;;;;;0.83;0.20;;;;;;;29.18;36.75;100308.25;5032105;28;20100;-72
2022/10/28 10:45:13;;;;;;;1.73;0.43;;;;;;;31.11;32.09;100306.66;5031893;28;20378;-72
2022/10/28 10:47:39;;;;;;;0.98;0.40;;;;;;;31.77;30.32;100305.09;5038356;28;20048;-72
2022/10/28 10:50:20;;;;;;;1.75;0.22;;;;;;;32.14;30.29;100309.28;5033333;28;20434;-74
2022/10/28 10:52:51;;;;;;;1.38;0.30;;;;;;;32.60;28.69;100317.75;5034610;28;20017;-72
2022/10/28 10:55:35;;;;;;;0.93;0.40;;;;;;;33.44;27.79;100324.03;5036020;28;20056;-72
2022/10/28 10:58:01;;;;;;;1.80;0.20;;;;;;;33.62;27.28;100335.94;5032094;28;20383;-73
2022/10/28 11:00:43;;;;;;;0.22;0.10;;;;;;;33.51;26.96;100340.94;5017122;28;20085;-72
2022/10/28 11:03:35;;;;;;;1.77;0.40;;;;;;;33.52;25.89;100360.34;5009338;28;20046;-74
2022/10/28 11:06:09;;;;;;;0.88;0.20;;;;;;;32.91;26.89;100348.97;5039289;28;20351;-73
2022/10/28 11:08:38;;;;;;;1.83;0.30;;;;;;;32.78;27.18;100355.16;5022235;28;20091;-72
2022/10/28 11:11:09;;;;;;;1.80;0.28;;;;;;;33.67;26.45;100357.31;5037272;28;20105;-72
2022/10/28 11:13:35;;;;;;;1.17;0.32;;;;;;;34.74;24.68;100373.84;5038261;28;20029;-73
2022/10/28 11:16:05;;;;;;;0.43;0.10;;;;;;;34.96;23.58;100374.28;5021779;28;20029;-72
2022/10/28 11:18:42;;;;;;;2.75;0.30;;;;;;;33.85;23.14;100368.41;5013797;28;20041;-71
2022/10/28 11:21:26;;;;;;;2.35;0.30;;;;;;;33.84;24.54;100370.47;5027393;28;20049;-70
2022/10/28 11:24:38;;;;;;;1.35;0.00;;;;;;;33.72;23.61;100368.19;5029733;28;20053;-71
2022/10/28 11:27:22;;;;;;;1.58;0.32;;;;;;;32.57;25.32;100380.84;5007676;28;20025;-72
2022/10/28 11:29:48;;;;;;;1.65;0.20;;;;;;;33.07;24.60;100386.00;5030309;28;20327;-73
2022/10/28 11:32:22;;;;;;;2.95;0.30;;;;;;;32.74;24.39;100385.56;5017735;28;20033;-73
2022/10/28 11:35:06;;;;;;;;;;;;;;;31.78;24.86;100383.03;5019619;28;20013;-72
2022/10/28 11:38:24;;;;;;;0.52;0.20;;;;;;;32.08;25.38;100381.63;5009136;28;19971;-72
2022/10/28 11:41:20;;;;;;;1.65;0.38;;;;;;;33.39;23.36;100396.16;5009283;28;20129;-72
2022/10/28 11:43:54;;;;;;;1.67;0.20;;;;;;;32.92;23.93;100395.91;5030036;28;20033;-72
2022/10/28 11:46:42;;;;;;;1.02;0.35;;;;;;;32.92;23.65;100387.41;5028007;28;20061;-71